ASA233 KIND-KJFK
Flight info
| Callsign | ASA233 |
|---|---|
| Flight time | 1h 35m |
| Altitude | 37000 |
| Route | MAREO5 BDOCK WWSHR Q29 JHW Q476 WLKES PUCKY1 |
| Aircraft | B738/M-SDE2E3FGHIRWXY/LB1 |
Departure
| Time | 2026-05-05 20:31 |
|---|---|
| Airport | Indianapolis International Airport (KIND) |
Arrival
| Time | 2026-05-05 22:06 |
|---|---|
| Airport | John F. Kennedy International Airport (KJFK) |
| Time | Latitude | Longitude | Altitude | Speed | Heading |
|---|---|---|---|---|---|
| 2026-05-05 20:31 | 39.73479 | -86.25153 | 2511 ft | 184 kts | 64° |
| 2026-05-05 20:31 | 39.73736 | -86.23509 | 2956 ft | 196 kts | 84° |
| 2026-05-05 20:31 | 39.73830 | -86.21692 | 3334 ft | 207 kts | 79° |
| 2026-05-05 20:31 | 39.74078 | -86.19762 | 3587 ft | 227 kts | 76° |
| 2026-05-05 20:32 | 39.74417 | -86.17674 | 3935 ft | 244 kts | 76° |
| 2026-05-05 20:32 | 39.74775 | -86.15461 | 4282 ft | 260 kts | 77° |
| 2026-05-05 20:32 | 39.75149 | -86.13052 | 4640 ft | 274 kts | 78° |
| 2026-05-05 20:32 | 39.75518 | -86.10591 | 5113 ft | 282 kts | 79° |
| 2026-05-05 20:33 | 39.75892 | -86.08079 | 5667 ft | 287 kts | 80° |
| 2026-05-05 20:33 | 39.76279 | -86.05506 | 6174 ft | 294 kts | 81° |
| 2026-05-05 20:33 | 39.76675 | -86.02882 | 6793 ft | 297 kts | 81° |
| 2026-05-05 20:33 | 39.77076 | -86.00227 | 7346 ft | 303 kts | 81° |
| 2026-05-05 20:34 | 39.77482 | -85.97532 | 7895 ft | 308 kts | 80° |
| 2026-05-05 20:34 | 39.77897 | -85.94776 | 8479 ft | 313 kts | 80° |
| 2026-05-05 20:34 | 39.78319 | -85.92008 | 9103 ft | 316 kts | 80° |
| 2026-05-05 20:34 | 39.78747 | -85.89198 | 9706 ft | 319 kts | 79° |
| 2026-05-05 20:35 | 39.79179 | -85.86352 | 10255 ft | 326 kts | 80° |
| 2026-05-05 20:35 | 39.79626 | -85.83379 | 10505 ft | 344 kts | 79° |
| 2026-05-05 20:35 | 39.80096 | -85.80211 | 10780 ft | 361 kts | 80° |
| 2026-05-05 20:35 | 39.80575 | -85.76976 | 11114 ft | 374 kts | 80° |
| 2026-05-05 20:36 | 39.81076 | -85.73621 | 11543 ft | 383 kts | 79° |
| 2026-05-05 20:36 | 39.81588 | -85.70207 | 12129 ft | 388 kts | 79° |
| 2026-05-05 20:36 | 39.82113 | -85.66714 | 12667 ft | 395 kts | 79° |
| 2026-05-05 20:36 | 39.82646 | -85.63203 | 13233 ft | 400 kts | 79° |
| 2026-05-05 20:37 | 39.83188 | -85.59595 | 13848 ft | 405 kts | 80° |
| 2026-05-05 20:37 | 39.83727 | -85.55968 | 14499 ft | 409 kts | 80° |
| 2026-05-05 20:37 | 39.84261 | -85.52326 | 15197 ft | 411 kts | 79° |
| 2026-05-05 20:37 | 39.84792 | -85.48692 | 15833 ft | 414 kts | 79° |
| 2026-05-05 20:38 | 39.85331 | -85.45001 | 16436 ft | 417 kts | 79° |
| 2026-05-05 20:38 | 39.85875 | -85.41315 | 17067 ft | 420 kts | 79° |
| 2026-05-05 20:38 | 39.86435 | -85.37514 | 17687 ft | 422 kts | 79° |
| 2026-05-05 20:38 | 39.86975 | -85.33803 | 18324 ft | 424 kts | 79° |
| 2026-05-05 20:39 | 39.87540 | -85.29943 | 18903 ft | 427 kts | 80° |
| 2026-05-05 20:39 | 39.88097 | -85.26157 | 19340 ft | 433 kts | 80° |
| 2026-05-05 20:39 | 39.88569 | -85.22238 | 19814 ft | 439 kts | 83° |
| 2026-05-05 20:39 | 39.88879 | -85.18271 | 20353 ft | 442 kts | 86° |
| 2026-05-05 20:40 | 39.89108 | -85.14252 | 20869 ft | 445 kts | 87° |
| 2026-05-05 20:40 | 39.89295 | -85.10221 | 21360 ft | 449 kts | 88° |
| 2026-05-05 20:40 | 39.89468 | -85.06130 | 21832 ft | 452 kts | 88° |
| 2026-05-05 20:40 | 39.89641 | -85.02035 | 22202 ft | 458 kts | 88° |
| 2026-05-05 20:41 | 39.89831 | -84.97915 | 22669 ft | 461 kts | 87° |
| 2026-05-05 20:41 | 39.90039 | -84.93716 | 23131 ft | 464 kts | 86° |
| 2026-05-05 20:41 | 39.90249 | -84.89509 | 23594 ft | 467 kts | 87° |
| 2026-05-05 20:41 | 39.90456 | -84.85291 | 24091 ft | 470 kts | 86° |
| 2026-05-05 20:42 | 39.90666 | -84.81036 | 24601 ft | 472 kts | 86° |
| 2026-05-05 20:42 | 39.90880 | -84.76727 | 25013 ft | 477 kts | 86° |
| 2026-05-05 20:42 | 39.91100 | -84.72369 | 25368 ft | 482 kts | 86° |
| 2026-05-05 20:42 | 39.91317 | -84.67998 | 25682 ft | 488 kts | 86° |
| 2026-05-05 20:43 | 39.91539 | -84.63580 | 26111 ft | 491 kts | 86° |
| 2026-05-05 20:43 | 39.91761 | -84.59170 | 26591 ft | 493 kts | 85° |
| 2026-05-05 20:43 | 39.91987 | -84.54633 | 27017 ft | 495 kts | 86° |
| 2026-05-05 20:43 | 39.92210 | -84.50191 | 27460 ft | 497 kts | 86° |
| 2026-05-05 20:44 | 39.92433 | -84.45697 | 27838 ft | 500 kts | 85° |
| 2026-05-05 20:44 | 39.92655 | -84.41157 | 28247 ft | 503 kts | 85° |
| 2026-05-05 20:44 | 39.92876 | -84.36594 | 28636 ft | 505 kts | 85° |
| 2026-05-05 20:44 | 39.93131 | -84.32002 | 28933 ft | 510 kts | 83° |
| 2026-05-05 20:45 | 39.94622 | -84.22946 | 29638 ft | 511 kts | 68° |
| 2026-05-05 20:45 | 39.96057 | -84.18745 | 30061 ft | 507 kts | 59° |
| 2026-05-05 20:45 | 39.97840 | -84.14788 | 30276 ft | 509 kts | 53° |
| 2026-05-05 20:46 | 39.99910 | -84.11073 | 30631 ft | 506 kts | 46° |
| 2026-05-05 20:46 | 40.02232 | -84.07624 | 30890 ft | 505 kts | 41° |
| 2026-05-05 20:46 | 40.04710 | -84.04391 | 31297 ft | 502 kts | 38° |
| 2026-05-05 20:46 | 40.07246 | -84.01204 | 31656 ft | 503 kts | 37° |
| 2026-05-05 20:47 | 40.09768 | -83.97987 | 31885 ft | 507 kts | 38° |
| 2026-05-05 20:47 | 40.12241 | -83.94700 | 32409 ft | 504 kts | 39° |
| 2026-05-05 20:47 | 40.14656 | -83.91344 | 33025 ft | 500 kts | 39° |
| 2026-05-05 20:47 | 40.16981 | -83.87995 | 33601 ft | 496 kts | 40° |
| 2026-05-05 20:48 | 40.19255 | -83.84639 | 33945 ft | 497 kts | 40° |
| 2026-05-05 20:48 | 40.21561 | -83.81195 | 34113 ft | 501 kts | 40° |
| 2026-05-05 20:48 | 40.23871 | -83.77711 | 34386 ft | 503 kts | 40° |
| 2026-05-05 20:48 | 40.26153 | -83.74247 | 34728 ft | 502 kts | 41° |
| 2026-05-05 20:49 | 40.28423 | -83.70782 | 35085 ft | 500 kts | 41° |
| 2026-05-05 20:49 | 40.30703 | -83.67293 | 35358 ft | 501 kts | 40° |
| 2026-05-05 20:49 | 40.32993 | -83.63789 | 35623 ft | 501 kts | 40° |
| 2026-05-05 20:49 | 40.35278 | -83.60294 | 35820 ft | 503 kts | 40° |
| 2026-05-05 20:50 | 40.37567 | -83.56788 | 36180 ft | 500 kts | 40° |
| 2026-05-05 20:50 | 40.39827 | -83.53316 | 36527 ft | 498 kts | 39° |
| 2026-05-05 20:50 | 40.42086 | -83.49846 | 36814 ft | 497 kts | 39° |
| 2026-05-05 20:50 | 40.44338 | -83.46392 | 36841 ft | 500 kts | 40° |
| 2026-05-05 20:51 | 40.48900 | -83.39399 | 36837 ft | 505 kts | 39° |
| 2026-05-05 20:51 | 40.53463 | -83.32385 | 36829 ft | 507 kts | 40° |
| 2026-05-05 20:52 | 40.58049 | -83.25311 | 36829 ft | 510 kts | 40° |
| 2026-05-05 20:52 | 40.62666 | -83.18176 | 36832 ft | 512 kts | 41° |
| 2026-05-05 20:53 | 40.67320 | -83.10960 | 36843 ft | 513 kts | 41° |
| 2026-05-05 20:53 | 40.71939 | -83.03777 | 36843 ft | 512 kts | 41° |
| 2026-05-05 20:54 | 40.76551 | -82.96590 | 36842 ft | 514 kts | 41° |
| 2026-05-05 20:54 | 40.81160 | -82.89391 | 36839 ft | 515 kts | 41° |
| 2026-05-05 20:55 | 40.83506 | -82.85722 | 36732 ft | 512 kts | 41° |
| 2026-05-05 20:55 | 40.85799 | -82.82129 | 36829 ft | 513 kts | 41° |
| 2026-05-05 20:55 | 40.90427 | -82.74882 | 36829 ft | 515 kts | 41° |
| 2026-05-05 20:56 | 40.95056 | -82.67614 | 36831 ft | 518 kts | 41° |
| 2026-05-05 20:56 | 40.99709 | -82.60287 | 36842 ft | 518 kts | 41° |
| 2026-05-05 20:57 | 41.04341 | -82.52958 | 36838 ft | 517 kts | 41° |
| 2026-05-05 20:57 | 41.08954 | -82.45644 | 36839 ft | 518 kts | 42° |
| 2026-05-05 20:58 | 41.13601 | -82.38269 | 36848 ft | 521 kts | 41° |
| 2026-05-05 20:58 | 41.18241 | -82.30883 | 36842 ft | 522 kts | 42° |
| 2026-05-05 20:59 | 41.22894 | -82.23464 | 36853 ft | 522 kts | 43° |
| 2026-05-05 20:59 | 41.27541 | -82.16029 | 36865 ft | 521 kts | 43° |
| 2026-05-05 21:00 | 41.32039 | -82.08375 | 36868 ft | 527 kts | 47° |
| 2026-05-05 21:00 | 41.35897 | -82.00002 | 36831 ft | 535 kts | 57° |
| 2026-05-05 21:01 | 41.39087 | -81.91019 | 36835 ft | 541 kts | 61° |
| 2026-05-05 21:01 | 41.42003 | -81.81723 | 36841 ft | 542 kts | 63° |
| 2026-05-05 21:02 | 41.44844 | -81.72468 | 36841 ft | 540 kts | 62° |
| 2026-05-05 21:02 | 41.47736 | -81.63114 | 36835 ft | 541 kts | 62° |
| 2026-05-05 21:03 | 41.50658 | -81.53775 | 36832 ft | 541 kts | 62° |
| 2026-05-05 21:03 | 41.53560 | -81.44532 | 36840 ft | 542 kts | 62° |
| 2026-05-05 21:04 | 41.56473 | -81.35261 | 36833 ft | 541 kts | 62° |
| 2026-05-05 21:04 | 41.59398 | -81.25924 | 36837 ft | 542 kts | 62° |
| 2026-05-05 21:05 | 41.62284 | -81.16682 | 36829 ft | 541 kts | 62° |
| 2026-05-05 21:05 | 41.65188 | -81.07350 | 36839 ft | 543 kts | 63° |
| 2026-05-05 21:06 | 41.68083 | -80.98017 | 36828 ft | 541 kts | 62° |
| 2026-05-05 21:06 | 41.70928 | -80.88780 | 36813 ft | 541 kts | 63° |
| 2026-05-05 21:07 | 41.73799 | -80.79401 | 36822 ft | 542 kts | 63° |
| 2026-05-05 21:07 | 41.76641 | -80.70100 | 36828 ft | 540 kts | 63° |
| 2026-05-05 21:08 | 41.79480 | -80.60774 | 36827 ft | 540 kts | 63° |
| 2026-05-05 21:08 | 41.82247 | -80.51382 | 36815 ft | 541 kts | 64° |
| 2026-05-05 21:09 | 41.84829 | -80.41858 | 36812 ft | 543 kts | 66° |
| 2026-05-05 21:09 | 41.87349 | -80.32304 | 36822 ft | 542 kts | 66° |
| 2026-05-05 21:10 | 41.89867 | -80.22775 | 36817 ft | 542 kts | 66° |
| 2026-05-05 21:10 | 41.92429 | -80.13136 | 36824 ft | 544 kts | 67° |
| 2026-05-05 21:11 | 41.94973 | -80.03588 | 36831 ft | 541 kts | 66° |
| 2026-05-05 21:11 | 41.97515 | -79.94032 | 36827 ft | 543 kts | 66° |
| 2026-05-05 21:12 | 42.00055 | -79.84456 | 36819 ft | 542 kts | 67° |
| 2026-05-05 21:12 | 42.02568 | -79.74927 | 36813 ft | 542 kts | 67° |
| 2026-05-05 21:13 | 42.05096 | -79.65299 | 36810 ft | 543 kts | 66° |
| 2026-05-05 21:13 | 42.07604 | -79.55712 | 36806 ft | 542 kts | 66° |
| 2026-05-05 21:14 | 42.10090 | -79.46174 | 36808 ft | 543 kts | 67° |
| 2026-05-05 21:14 | 42.12609 | -79.36475 | 36823 ft | 543 kts | 67° |
| 2026-05-05 21:15 | 42.15078 | -79.26928 | 36829 ft | 542 kts | 68° |
| 2026-05-05 21:15 | 42.17016 | -79.17095 | 36826 ft | 545 kts | 81° |
| 2026-05-05 21:16 | 42.17265 | -79.11946 | 36823 ft | 546 kts | 92° |
| 2026-05-05 21:16 | 42.16946 | -79.06857 | 36822 ft | 545 kts | 101° |
| 2026-05-05 21:16 | 42.15210 | -78.96892 | 36816 ft | 543 kts | 110° |
| 2026-05-05 21:17 | 42.12872 | -78.87230 | 36812 ft | 541 kts | 112° |
| 2026-05-05 21:17 | 42.10381 | -78.77670 | 36820 ft | 540 kts | 112° |
| 2026-05-05 21:18 | 42.07888 | -78.68143 | 36824 ft | 539 kts | 111° |
| 2026-05-05 21:18 | 42.05444 | -78.58688 | 36822 ft | 538 kts | 111° |
| 2026-05-05 21:19 | 42.02982 | -78.49084 | 36814 ft | 540 kts | 111° |
| 2026-05-05 21:19 | 42.00532 | -78.39521 | 36814 ft | 538 kts | 111° |
| 2026-05-05 21:20 | 41.98091 | -78.29993 | 36814 ft | 536 kts | 112° |
| 2026-05-05 21:20 | 41.95661 | -78.20534 | 36814 ft | 537 kts | 112° |
| 2026-05-05 21:21 | 41.93212 | -78.11060 | 36815 ft | 534 kts | 112° |
| 2026-05-05 21:21 | 41.90773 | -78.01665 | 36826 ft | 535 kts | 111° |
| 2026-05-05 21:22 | 41.88285 | -77.92140 | 36811 ft | 533 kts | 111° |
| 2026-05-05 21:22 | 41.85845 | -77.82805 | 36829 ft | 532 kts | 111° |
| 2026-05-05 21:23 | 41.83389 | -77.73450 | 36829 ft | 533 kts | 111° |
| 2026-05-05 21:23 | 41.80917 | -77.64076 | 36822 ft | 532 kts | 111° |
| 2026-05-05 21:24 | 41.78457 | -77.54778 | 36822 ft | 532 kts | 111° |
| 2026-05-05 21:24 | 41.75972 | -77.45427 | 36823 ft | 531 kts | 110° |
| 2026-05-05 21:25 | 41.73476 | -77.36066 | 36826 ft | 530 kts | 111° |
| 2026-05-05 21:25 | 41.70997 | -77.26804 | 36832 ft | 529 kts | 111° |
| 2026-05-05 21:26 | 41.68486 | -77.17473 | 36843 ft | 530 kts | 111° |
| 2026-05-05 21:26 | 41.65987 | -77.08213 | 36841 ft | 526 kts | 111° |
| 2026-05-05 21:27 | 41.63487 | -76.98987 | 36849 ft | 526 kts | 111° |
| 2026-05-05 21:27 | 41.60974 | -76.89747 | 36854 ft | 527 kts | 111° |
| 2026-05-05 21:28 | 41.58474 | -76.80586 | 36861 ft | 526 kts | 111° |
| 2026-05-05 21:28 | 41.55962 | -76.71425 | 36856 ft | 525 kts | 111° |
| 2026-05-05 21:29 | 41.53430 | -76.62220 | 36860 ft | 525 kts | 111° |
| 2026-05-05 21:29 | 41.50912 | -76.53095 | 36859 ft | 522 kts | 111° |
| 2026-05-05 21:30 | 41.48379 | -76.43938 | 36862 ft | 524 kts | 111° |
| 2026-05-05 21:30 | 41.45837 | -76.34794 | 36861 ft | 523 kts | 111° |
| 2026-05-05 21:31 | 41.43298 | -76.25691 | 36866 ft | 522 kts | 111° |
| 2026-05-05 21:31 | 41.40767 | -76.16639 | 36863 ft | 521 kts | 111° |
| 2026-05-05 21:32 | 41.38237 | -76.07617 | 36861 ft | 519 kts | 111° |
| 2026-05-05 21:32 | 41.35669 | -75.98510 | 36848 ft | 520 kts | 111° |
| 2026-05-05 21:33 | 41.33129 | -75.89524 | 36589 ft | 514 kts | 112° |
| 2026-05-05 21:33 | 41.31878 | -75.85101 | 36350 ft | 507 kts | 111° |
| 2026-05-05 21:33 | 41.30618 | -75.80650 | 36103 ft | 504 kts | 111° |
| 2026-05-05 21:34 | 41.29378 | -75.76287 | 35864 ft | 505 kts | 112° |
| 2026-05-05 21:34 | 41.28140 | -75.71945 | 35627 ft | 510 kts | 112° |
| 2026-05-05 21:34 | 41.26864 | -75.67504 | 35382 ft | 511 kts | 112° |
| 2026-05-05 21:34 | 41.25531 | -75.63152 | 35141 ft | 511 kts | 114° |
| 2026-05-05 21:35 | 41.24108 | -75.58809 | 34897 ft | 509 kts | 115° |
| 2026-05-05 21:35 | 41.22649 | -75.54511 | 34655 ft | 511 kts | 115° |
| 2026-05-05 21:35 | 41.21160 | -75.50194 | 34378 ft | 511 kts | 115° |
| 2026-05-05 21:35 | 41.19693 | -75.45953 | 34098 ft | 509 kts | 116° |
| 2026-05-05 21:36 | 41.18221 | -75.41685 | 33813 ft | 508 kts | 116° |
| 2026-05-05 21:36 | 41.16757 | -75.37421 | 33531 ft | 509 kts | 115° |
| 2026-05-05 21:36 | 41.15287 | -75.33120 | 33248 ft | 510 kts | 116° |
| 2026-05-05 21:36 | 41.13835 | -75.28857 | 32969 ft | 510 kts | 116° |
| 2026-05-05 21:37 | 41.12367 | -75.24530 | 32681 ft | 509 kts | 116° |
| 2026-05-05 21:37 | 41.10909 | -75.20232 | 32398 ft | 510 kts | 116° |
| 2026-05-05 21:37 | 41.09467 | -75.15989 | 32119 ft | 511 kts | 115° |
| 2026-05-05 21:37 | 41.08016 | -75.11713 | 31841 ft | 509 kts | 116° |
| 2026-05-05 21:38 | 41.06560 | -75.07425 | 31557 ft | 508 kts | 116° |
| 2026-05-05 21:38 | 41.05109 | -75.03159 | 31278 ft | 508 kts | 116° |
| 2026-05-05 21:38 | 41.03643 | -74.98854 | 30990 ft | 510 kts | 115° |
| 2026-05-05 21:38 | 41.02196 | -74.94607 | 30712 ft | 506 kts | 116° |
| 2026-05-05 21:39 | 41.00837 | -74.90311 | 30434 ft | 506 kts | 112° |
| 2026-05-05 21:39 | 40.99714 | -74.85895 | 30155 ft | 505 kts | 106° |
| 2026-05-05 21:39 | 40.98869 | -74.81431 | 29880 ft | 499 kts | 102° |
| 2026-05-05 21:39 | 40.98206 | -74.76933 | 29606 ft | 498 kts | 99° |
| 2026-05-05 21:40 | 40.97656 | -74.72468 | 29332 ft | 495 kts | 98° |
| 2026-05-05 21:40 | 40.97156 | -74.67962 | 29060 ft | 491 kts | 97° |
| 2026-05-05 21:40 | 40.96678 | -74.63462 | 28787 ft | 491 kts | 97° |
| 2026-05-05 21:40 | 40.96203 | -74.59006 | 28519 ft | 489 kts | 97° |
| 2026-05-05 21:41 | 40.95721 | -74.54584 | 28253 ft | 486 kts | 98° |
| 2026-05-05 21:41 | 40.95227 | -74.50173 | 27978 ft | 482 kts | 98° |
| 2026-05-05 21:41 | 40.94732 | -74.45860 | 27623 ft | 475 kts | 98° |
| 2026-05-05 21:41 | 40.94227 | -74.41531 | 27114 ft | 470 kts | 98° |
| 2026-05-05 21:42 | 40.93727 | -74.37300 | 26566 ft | 466 kts | 98° |
| 2026-05-05 21:42 | 40.93222 | -74.33079 | 25995 ft | 463 kts | 99° |
| 2026-05-05 21:42 | 40.92717 | -74.28891 | 25427 ft | 459 kts | 99° |
| 2026-05-05 21:42 | 40.92216 | -74.24758 | 24872 ft | 455 kts | 99° |
| 2026-05-05 21:43 | 40.91713 | -74.20617 | 24287 ft | 451 kts | 99° |
| 2026-05-05 21:43 | 40.91154 | -74.16551 | 23740 ft | 446 kts | 103° |
| 2026-05-05 21:43 | 40.90367 | -74.12681 | 23196 ft | 440 kts | 111° |
| 2026-05-05 21:43 | 40.89148 | -74.08961 | 22665 ft | 434 kts | 120° |
| 2026-05-05 21:44 | 40.87681 | -74.05512 | 22115 ft | 429 kts | 124° |
| 2026-05-05 21:44 | 40.86090 | -74.02165 | 21564 ft | 425 kts | 126° |
| 2026-05-05 21:44 | 40.84488 | -73.98955 | 21029 ft | 421 kts | 127° |
| 2026-05-05 21:44 | 40.82876 | -73.95770 | 20497 ft | 418 kts | 127° |
| 2026-05-05 21:45 | 40.81238 | -73.92538 | 19946 ft | 415 kts | 127° |
| 2026-05-05 21:45 | 40.79664 | -73.89417 | 19413 ft | 413 kts | 127° |
| 2026-05-05 21:45 | 40.78086 | -73.86269 | 18881 ft | 410 kts | 127° |
| 2026-05-05 21:45 | 40.76514 | -73.83135 | 18612 ft | 409 kts | 127° |
| 2026-05-05 21:46 | 40.74910 | -73.79965 | 18386 ft | 414 kts | 127° |
| 2026-05-05 21:46 | 40.73317 | -73.76904 | 18137 ft | 408 kts | 131° |
| 2026-05-05 21:46 | 40.71272 | -73.74436 | 17902 ft | 394 kts | 153° |
| 2026-05-05 21:46 | 40.68758 | -73.73155 | 17649 ft | 384 kts | 174° |
| 2026-05-05 21:47 | 40.66157 | -73.72979 | 17432 ft | 369 kts | 189° |
| 2026-05-05 21:47 | 40.63730 | -73.73573 | 17226 ft | 348 kts | 200° |
| 2026-05-05 21:47 | 40.61520 | -73.74631 | 16946 ft | 331 kts | 207° |
| 2026-05-05 21:47 | 40.59524 | -73.76011 | 16682 ft | 314 kts | 219° |
| 2026-05-05 21:48 | 40.57971 | -73.77894 | 16421 ft | 298 kts | 233° |
| 2026-05-05 21:48 | 40.56842 | -73.80097 | 16130 ft | 281 kts | 244° |
| 2026-05-05 21:48 | 40.56046 | -73.82339 | 15891 ft | 263 kts | 250° |
| 2026-05-05 21:48 | 40.55519 | -73.84567 | 15654 ft | 248 kts | 259° |
| 2026-05-05 21:49 | 40.55352 | -73.86755 | 15377 ft | 235 kts | 268° |
| 2026-05-05 21:49 | 40.55442 | -73.88846 | 15108 ft | 224 kts | 274° |
| 2026-05-05 21:49 | 40.55705 | -73.90814 | 14845 ft | 215 kts | 281° |
| 2026-05-05 21:49 | 40.56183 | -73.92643 | 14566 ft | 209 kts | 289° |
| 2026-05-05 21:50 | 40.56864 | -73.94389 | 13857 ft | 221 kts | 295° |
| 2026-05-05 21:50 | 40.57759 | -73.96088 | 13106 ft | 234 kts | 303° |
| 2026-05-05 21:50 | 40.58892 | -73.97640 | 12361 ft | 246 kts | 311° |
| 2026-05-05 21:50 | 40.60295 | -73.99023 | 11627 ft | 256 kts | 320° |
| 2026-05-05 21:51 | 40.61897 | -74.00131 | 10877 ft | 266 kts | 329° |
| 2026-05-05 21:51 | 40.63682 | -74.00861 | 10150 ft | 277 kts | 340° |
| 2026-05-05 21:51 | 40.65603 | -74.01172 | 9414 ft | 285 kts | 350° |
| 2026-05-05 21:51 | 40.67607 | -74.01131 | 8672 ft | 293 kts | 360° |
| 2026-05-05 21:52 | 40.70860 | -73.98312 | 8337 ft | 275 kts | 67° |
| 2026-05-05 21:52 | 40.71193 | -73.95950 | 8353 ft | 255 kts | 94° |
| 2026-05-05 21:52 | 40.71101 | -73.93658 | 8129 ft | 250 kts | 99° |
| 2026-05-05 21:53 | 40.70940 | -73.91401 | 7899 ft | 248 kts | 99° |
| 2026-05-05 21:53 | 40.70991 | -73.89133 | 7655 ft | 249 kts | 85° |
| 2026-05-05 21:53 | 40.71286 | -73.86900 | 7428 ft | 247 kts | 81° |
| 2026-05-05 21:53 | 40.71617 | -73.84682 | 7193 ft | 245 kts | 82° |
| 2026-05-05 21:54 | 40.71919 | -73.82455 | 6976 ft | 243 kts | 84° |
| 2026-05-05 21:54 | 40.72185 | -73.80280 | 6753 ft | 242 kts | 85° |
| 2026-05-05 21:54 | 40.72440 | -73.78110 | 6493 ft | 240 kts | 85° |
| 2026-05-05 21:54 | 40.72693 | -73.75934 | 6253 ft | 239 kts | 85° |
| 2026-05-05 21:55 | 40.72946 | -73.73762 | 6031 ft | 237 kts | 85° |
| 2026-05-05 21:55 | 40.73192 | -73.71685 | 5996 ft | 226 kts | 85° |
| 2026-05-05 21:55 | 40.73430 | -73.69660 | 5997 ft | 224 kts | 85° |
| 2026-05-05 21:55 | 40.73667 | -73.67606 | 5999 ft | 225 kts | 85° |
| 2026-05-05 21:56 | 40.73904 | -73.65551 | 6005 ft | 227 kts | 85° |
| 2026-05-05 21:56 | 40.74142 | -73.63522 | 6000 ft | 224 kts | 85° |
| 2026-05-05 21:56 | 40.74378 | -73.61488 | 6006 ft | 225 kts | 85° |
| 2026-05-05 21:56 | 40.74612 | -73.59469 | 6008 ft | 225 kts | 85° |
| 2026-05-05 21:57 | 40.74848 | -73.57436 | 6005 ft | 223 kts | 85° |
| 2026-05-05 21:57 | 40.75082 | -73.55424 | 5999 ft | 222 kts | 85° |
| 2026-05-05 21:57 | 40.75317 | -73.53384 | 6007 ft | 225 kts | 85° |
| 2026-05-05 21:57 | 40.75793 | -73.51455 | 5886 ft | 223 kts | 55° |
| 2026-05-05 21:58 | 40.76961 | -73.50213 | 5638 ft | 212 kts | 12° |
| 2026-05-05 21:58 | 40.78349 | -73.49941 | 5444 ft | 196 kts | 347° |
| 2026-05-05 21:58 | 40.79671 | -73.50237 | 5193 ft | 185 kts | 327° |
| 2026-05-05 21:58 | 40.80674 | -73.51105 | 5116 ft | 170 kts | 304° |
| 2026-05-05 21:59 | 40.81502 | -73.52221 | 5037 ft | 168 kts | 299° |
| 2026-05-05 21:59 | 40.82070 | -73.53504 | 4920 ft | 155 kts | 272° |
| 2026-05-05 21:59 | 40.82015 | -73.54874 | 4712 ft | 147 kts | 249° |
| 2026-05-05 21:59 | 40.81677 | -73.56124 | 4490 ft | 145 kts | 246° |
| 2026-05-05 22:00 | 40.81345 | -73.57373 | 4289 ft | 144 kts | 247° |
| 2026-05-05 22:00 | 40.81021 | -73.58632 | 4096 ft | 144 kts | 247° |
| 2026-05-05 22:00 | 40.80697 | -73.59865 | 3902 ft | 143 kts | 246° |
| 2026-05-05 22:00 | 40.80371 | -73.61102 | 3746 ft | 143 kts | 246° |
| 2026-05-05 22:01 | 40.80029 | -73.62352 | 3613 ft | 143 kts | 242° |
| 2026-05-05 22:01 | 40.79461 | -73.63401 | 3448 ft | 141 kts | 225° |
| 2026-05-05 22:01 | 40.78714 | -73.64249 | 3246 ft | 141 kts | 219° |
| 2026-05-05 22:01 | 40.77918 | -73.64980 | 3060 ft | 139 kts | 215° |
| 2026-05-05 22:02 | 40.77087 | -73.65662 | 2884 ft | 142 kts | 214° |
| 2026-05-05 22:02 | 40.76239 | -73.66339 | 2667 ft | 141 kts | 213° |
| 2026-05-05 22:02 | 40.75384 | -73.67014 | 2499 ft | 150 kts | 213° |
| 2026-05-05 22:02 | 40.74466 | -73.67733 | 2266 ft | 154 kts | 213° |
| 2026-05-05 22:03 | 40.73538 | -73.68457 | 2058 ft | 155 kts | 213° |
| 2026-05-05 22:03 | 40.72625 | -73.69172 | 1852 ft | 152 kts | 212° |
| 2026-05-05 22:03 | 40.71707 | -73.69891 | 1648 ft | 153 kts | 212° |
| 2026-05-05 22:03 | 40.70790 | -73.70605 | 1435 ft | 151 kts | 212° |
| 2026-05-05 22:04 | 40.69864 | -73.71326 | 1236 ft | 157 kts | 211° |
| 2026-05-05 22:04 | 40.68948 | -73.72042 | 1045 ft | 148 kts | 211° |
| 2026-05-05 22:04 | 40.68040 | -73.72752 | 853 ft | 155 kts | 210° |
| 2026-05-05 22:04 | 40.67088 | -73.73493 | 630 ft | 155 kts | 210° |
| 2026-05-05 22:05 | 40.66220 | -73.74182 | 447 ft | 132 kts | 210° |
| 2026-05-05 22:05 | 40.65478 | -73.74781 | 381 ft | 121 kts | 208° |
| 2026-05-05 22:05 | 40.64747 | -73.75319 | 147 ft | 120 kts | 205° |
| 2026-05-05 22:05 | 40.64069 | -73.75843 | 18 ft | 103 kts | 206° |
| 2026-05-05 22:06 | 40.63592 | -73.76205 | 17 ft | 51 kts | 203° |
| 2026-05-05 22:06 | 40.63384 | -73.76371 | 17 ft | 27 kts | 222° |
| 2026-05-05 22:06 | 40.63274 | -73.76545 | 16 ft | 23 kts | 238° |
| 2026-05-05 22:06 | 40.63235 | -73.76726 | 16 ft | 23 kts | 297° |
| 2026-05-05 22:07 | 40.63314 | -73.76884 | 15 ft | 14 kts | 301° |
| 2026-05-05 22:07 | 40.63363 | -73.76990 | 15 ft | 12 kts | 300° |
| 2026-05-05 22:07 | 40.63405 | -73.77085 | 15 ft | 11 kts | 300° |
| 2026-05-05 22:07 | 40.63452 | -73.77185 | 15 ft | 14 kts | 301° |
| 2026-05-05 22:08 | 40.63508 | -73.77309 | 15 ft | 15 kts | 298° |
| 2026-05-05 22:08 | 40.63559 | -73.77428 | 15 ft | 14 kts | 300° |
| 2026-05-05 22:08 | 40.63607 | -73.77534 | 16 ft | 12 kts | 303° |
| 2026-05-05 22:08 | 40.63654 | -73.77625 | 16 ft | 11 kts | 304° |
| 2026-05-05 22:09 | 40.63714 | -73.77667 | 16 ft | 10 kts | 23° |
| 2026-05-05 22:09 | 40.63768 | -73.77666 | 16 ft | 7 kts | 294° |
| 2026-05-05 22:09 | 40.63804 | -73.77716 | 16 ft | 7 kts | 322° |
| 2026-05-05 22:09 | 40.63853 | -73.77758 | 16 ft | 8 kts | 329° |
| 2026-05-05 22:10 | 40.63904 | -73.77801 | 16 ft | 7 kts | 323° |
| 2026-05-05 22:10 | 40.63911 | -73.77845 | 16 ft | 4 kts | 241° |
| 2026-05-05 22:10 | 40.63894 | -73.77882 | 16 ft | 6 kts | 237° |
| 2026-05-05 22:10 | 40.63853 | -73.77926 | 16 ft | 8 kts | 182° |
| 2026-05-05 22:11 | 40.63801 | -73.77937 | 16 ft | 7 kts | 217° |
| 2026-05-05 22:11 | 40.63787 | -73.77982 | 16 ft | 3 kts | 261° |
| 2026-05-05 22:11 | 40.63783 | -73.78020 | 16 ft | 3 kts | 268° |
| 2026-05-05 22:11 | 40.63782 | -73.78036 | 16 ft | 0 kts | 262° |